sensor_id;sensor_type;location;lat;lon;timestamp;P1;durP1;ratioP1;P2;durP2;ratioP2
4634;SDS011;2330;48.158;11.816;2022-10-16T00:01:08;6.67;;;3.93;;
4634;SDS011;2330;48.158;11.816;2022-10-16T00:03:38;4.67;;;2.10;;
4634;SDS011;2330;48.158;11.816;2022-10-16T00:06:05;2.00;;;1.80;;
4634;SDS011;2330;48.158;11.816;2022-10-16T00:08:33;3.40;;;2.07;;
4634;SDS011;2330;48.158;11.816;2022-10-16T00:11:05;2.30;;;1.77;;
4634;SDS011;2330;48.158;11.816;2022-10-16T00:13:39;3.13;;;1.70;;
4634;SDS011;2330;48.158;11.816;2022-10-16T00:16:08;2.53;;;1.70;;
4634;SDS011;2330;48.158;11.816;2022-10-16T00:18:38;2.40;;;1.60;;
4634;SDS011;2330;48.158;11.816;2022-10-16T00:21:10;4.50;;;1.70;;
4634;SDS011;2330;48.158;11.816;2022-10-16T00:23:58;8.20;;;1.60;;
4634;SDS011;2330;48.158;11.816;2022-10-16T00:26:27;2.17;;;1.53;;
4634;SDS011;2330;48.158;11.816;2022-10-16T00:28:56;1.90;;;1.70;;
4634;SDS011;2330;48.158;11.816;2022-10-16T00:31:23;3.10;;;1.47;;
4634;SDS011;2330;48.158;11.816;2022-10-16T00:33:50;1.60;;;1.50;;
4634;SDS011;2330;48.158;11.816;2022-10-16T00:36:18;5.53;;;1.10;;
4634;SDS011;2330;48.158;11.816;2022-10-16T00:38:46;1.90;;;1.70;;
4634;SDS011;2330;48.158;11.816;2022-10-16T00:41:16;2.80;;;1.43;;
4634;SDS011;2330;48.158;11.816;2022-10-16T00:43:47;3.67;;;1.63;;
4634;SDS011;2330;48.158;11.816;2022-10-16T00:48:59;3.50;;;1.57;;
4634;SDS011;2330;48.158;11.816;2022-10-16T00:54:05;2.50;;;1.50;;
4634;SDS011;2330;48.158;11.816;2022-10-16T00:56:41;3.47;;;1.50;;
4634;SDS011;2330;48.158;11.816;2022-10-16T00:59:12;2.47;;;1.40;;
4634;SDS011;2330;48.158;11.816;2022-10-16T01:01:42;4.97;;;1.87;;
4634;SDS011;2330;48.158;11.816;2022-10-16T01:04:08;4.90;;;1.20;;
4634;SDS011;2330;48.158;11.816;2022-10-16T01:09:29;1.57;;;1.13;;
4634;SDS011;2330;48.158;11.816;2022-10-16T01:15:15;1.57;;;1.10;;
4634;SDS011;2330;48.158;11.816;2022-10-16T01:17:57;1.20;;;1.00;;
4634;SDS011;2330;48.158;11.816;2022-10-16T01:23:12;2.90;;;1.47;;
4634;SDS011;2330;48.158;11.816;2022-10-16T01:26:13;1.30;;;1.10;;
4634;SDS011;2330;48.158;11.816;2022-10-16T01:28:57;3.73;;;1.10;;
4634;SDS011;2330;48.158;11.816;2022-10-16T01:31:28;1.47;;;1.30;;
4634;SDS011;2330;48.158;11.816;2022-10-16T01:36:38;1.73;;;1.50;;
4634;SDS011;2330;48.158;11.816;2022-10-16T01:39:10;1.23;;;1.13;;
4634;SDS011;2330;48.158;11.816;2022-10-16T01:41:39;5.70;;;1.63;;
4634;SDS011;2330;48.158;11.816;2022-10-16T01:47:12;2.67;;;1.40;;
4634;SDS011;2330;48.158;11.816;2022-10-16T01:49:40;2.30;;;1.30;;
4634;SDS011;2330;48.158;11.816;2022-10-16T01:52:09;2.13;;;1.20;;
4634;SDS011;2330;48.158;11.816;2022-10-16T01:54:40;4.10;;;1.17;;
4634;SDS011;2330;48.158;11.816;2022-10-16T01:57:12;1.47;;;1.37;;
4634;SDS011;2330;48.158;11.816;2022-10-16T01:59:46;12.20;;;2.57;;
4634;SDS011;2330;48.158;11.816;2022-10-16T02:02:15;1.30;;;1.20;;
4634;SDS011;2330;48.158;11.816;2022-10-16T02:04:55;1.20;;;1.10;;
4634;SDS011;2330;48.158;11.816;2022-10-16T02:07:30;1.93;;;1.43;;
4634;SDS011;2330;48.158;11.816;2022-10-16T02:09:57;1.90;;;1.10;;
4634;SDS011;2330;48.158;11.816;2022-10-16T02:12:33;1.90;;;1.20;;
4634;SDS011;2330;48.158;11.816;2022-10-16T02:15:05;2.10;;;1.23;;
4634;SDS011;2330;48.158;11.816;2022-10-16T02:17:33;1.67;;;1.57;;
4634;SDS011;2330;48.158;11.816;2022-10-16T02:19:59;1.90;;;1.40;;
4634;SDS011;2330;48.158;11.816;2022-10-16T02:25:04;3.00;;;1.37;;
4634;SDS011;2330;48.158;11.816;2022-10-16T02:32:51;2.70;;;1.40;;
4634;SDS011;2330;48.158;11.816;2022-10-16T02:35:20;2.70;;;1.30;;
4634;SDS011;2330;48.158;11.816;2022-10-16T02:37:48;1.80;;;1.33;;
4634;SDS011;2330;48.158;11.816;2022-10-16T02:40:17;1.20;;;1.10;;
4634;SDS011;2330;48.158;11.816;2022-10-16T02:42:50;5.60;;;1.30;;
4634;SDS011;2330;48.158;11.816;2022-10-16T02:45:18;3.20;;;1.80;;
4634;SDS011;2330;48.158;11.816;2022-10-16T02:47:46;4.90;;;2.00;;
4634;SDS011;2330;48.158;11.816;2022-10-16T02:50:13;4.37;;;1.63;;
4634;SDS011;2330;48.158;11.816;2022-10-16T02:52:40;3.43;;;1.70;;
4634;SDS011;2330;48.158;11.816;2022-10-16T02:55:07;4.23;;;1.60;;
4634;SDS011;2330;48.158;11.816;2022-10-16T02:57:34;1.50;;;1.40;;
4634;SDS011;2330;48.158;11.816;2022-10-16T03:00:03;3.20;;;1.80;;
4634;SDS011;2330;48.158;11.816;2022-10-16T03:02:31;1.53;;;1.43;;
4634;SDS011;2330;48.158;11.816;2022-10-16T03:04:57;1.87;;;1.63;;
4634;SDS011;2330;48.158;11.816;2022-10-16T03:07:24;1.50;;;1.40;;
4634;SDS011;2330;48.158;11.816;2022-10-16T03:09:52;5.37;;;1.40;;
4634;SDS011;2330;48.158;11.816;2022-10-16T03:12:18;3.60;;;1.50;;
4634;SDS011;2330;48.158;11.816;2022-10-16T03:14:45;1.53;;;1.43;;
4634;SDS011;2330;48.158;11.816;2022-10-16T03:17:12;3.13;;;1.70;;
4634;SDS011;2330;48.158;11.816;2022-10-16T03:19:39;1.97;;;1.57;;
4634;SDS011;2330;48.158;11.816;2022-10-16T03:22:06;5.17;;;1.37;;
4634;SDS011;2330;48.158;11.816;2022-10-16T03:24:32;3.43;;;1.33;;
4634;SDS011;2330;48.158;11.816;2022-10-16T03:26:59;1.87;;;1.40;;
4634;SDS011;2330;48.158;11.816;2022-10-16T03:29:26;1.80;;;1.70;;
4634;SDS011;2330;48.158;11.816;2022-10-16T03:31:58;1.47;;;1.37;;
4634;SDS011;2330;48.158;11.816;2022-10-16T03:34:25;1.97;;;1.53;;
4634;SDS011;2330;48.158;11.816;2022-10-16T03:36:52;4.63;;;1.50;;
4634;SDS011;2330;48.158;11.816;2022-10-16T03:39:19;1.30;;;1.20;;
4634;SDS011;2330;48.158;11.816;2022-10-16T03:41:46;1.40;;;1.30;;
4634;SDS011;2330;48.158;11.816;2022-10-16T03:44:12;1.83;;;1.40;;
4634;SDS011;2330;48.158;11.816;2022-10-16T03:46:39;3.57;;;1.50;;
4634;SDS011;2330;48.158;11.816;2022-10-16T03:49:06;2.63;;;1.23;;
4634;SDS011;2330;48.158;11.816;2022-10-16T03:51:35;2.33;;;1.40;;
4634;SDS011;2330;48.158;11.816;2022-10-16T03:54:02;2.90;;;1.10;;
4634;SDS011;2330;48.158;11.816;2022-10-16T03:56:28;3.33;;;1.27;;
4634;SDS011;2330;48.158;11.816;2022-10-16T03:58:55;3.60;;;1.47;;
4634;SDS011;2330;48.158;11.816;2022-10-16T04:01:22;3.83;;;1.37;;
4634;SDS011;2330;48.158;11.816;2022-10-16T04:03:48;1.90;;;1.80;;
4634;SDS011;2330;48.158;11.816;2022-10-16T04:06:15;4.40;;;1.40;;
4634;SDS011;2330;48.158;11.816;2022-10-16T04:08:42;1.77;;;1.40;;
4634;SDS011;2330;48.158;11.816;2022-10-16T04:11:09;2.40;;;1.63;;
4634;SDS011;2330;48.158;11.816;2022-10-16T04:13:36;1.93;;;1.20;;
4634;SDS011;2330;48.158;11.816;2022-10-16T04:16:03;2.80;;;1.10;;
4634;SDS011;2330;48.158;11.816;2022-10-16T04:18:30;3.13;;;1.93;;
4634;SDS011;2330;48.158;11.816;2022-10-16T04:20:58;1.70;;;1.60;;
4634;SDS011;2330;48.158;11.816;2022-10-16T04:23:32;5.77;;;1.80;;
4634;SDS011;2330;48.158;11.816;2022-10-16T04:25:59;1.93;;;1.53;;
4634;SDS011;2330;48.158;11.816;2022-10-16T04:28:26;2.00;;;1.53;;
4634;SDS011;2330;48.158;11.816;2022-10-16T04:30:53;1.57;;;1.13;;
4634;SDS011;2330;48.158;11.816;2022-10-16T04:33:19;2.80;;;1.30;;
4634;SDS011;2330;48.158;11.816;2022-10-16T04:35:46;2.13;;;1.30;;
4634;SDS011;2330;48.158;11.816;2022-10-16T04:38:13;1.43;;;1.30;;
4634;SDS011;2330;48.158;11.816;2022-10-16T04:40:41;1.47;;;1.33;;
4634;SDS011;2330;48.158;11.816;2022-10-16T04:43:08;2.87;;;1.50;;
4634;SDS011;2330;48.158;11.816;2022-10-16T04:45:35;1.87;;;1.20;;
4634;SDS011;2330;48.158;11.816;2022-10-16T04:48:02;2.40;;;1.30;;
4634;SDS011;2330;48.158;11.816;2022-10-16T04:50:29;1.10;;;1.00;;
4634;SDS011;2330;48.158;11.816;2022-10-16T04:52:56;3.77;;;1.20;;
4634;SDS011;2330;48.158;11.816;2022-10-16T04:55:22;3.60;;;1.50;;
4634;SDS011;2330;48.158;11.816;2022-10-16T04:57:49;1.37;;;1.20;;
4634;SDS011;2330;48.158;11.816;2022-10-16T05:00:16;3.20;;;1.40;;
4634;SDS011;2330;48.158;11.816;2022-10-16T05:02:43;1.87;;;1.60;;
4634;SDS011;2330;48.158;11.816;2022-10-16T05:05:10;1.40;;;1.30;;
4634;SDS011;2330;48.158;11.816;2022-10-16T05:07:37;1.40;;;1.30;;
4634;SDS011;2330;48.158;11.816;2022-10-16T05:10:04;1.60;;;1.33;;
4634;SDS011;2330;48.158;11.816;2022-10-16T05:12:31;7.13;;;1.90;;
4634;SDS011;2330;48.158;11.816;2022-10-16T05:14:58;1.30;;;1.20;;
4634;SDS011;2330;48.158;11.816;2022-10-16T05:17:25;1.37;;;1.27;;
4634;SDS011;2330;48.158;11.816;2022-10-16T05:19:53;2.27;;;2.13;;
4634;SDS011;2330;48.158;11.816;2022-10-16T05:22:20;1.30;;;1.20;;
4634;SDS011;2330;48.158;11.816;2022-10-16T05:24:47;2.40;;;1.33;;
4634;SDS011;2330;48.158;11.816;2022-10-16T05:27:13;3.53;;;1.30;;
4634;SDS011;2330;48.158;11.816;2022-10-16T05:29:45;2.90;;;1.70;;
4634;SDS011;2330;48.158;11.816;2022-10-16T05:32:13;1.43;;;1.33;;
4634;SDS011;2330;48.158;11.816;2022-10-16T05:34:44;5.07;;;1.40;;
4634;SDS011;2330;48.158;11.816;2022-10-16T05:37:11;1.30;;;1.20;;
4634;SDS011;2330;48.158;11.816;2022-10-16T05:39:38;1.43;;;1.27;;
4634;SDS011;2330;48.158;11.816;2022-10-16T05:42:05;1.50;;;1.40;;
4634;SDS011;2330;48.158;11.816;2022-10-16T05:44:32;2.47;;;1.47;;
4634;SDS011;2330;48.158;11.816;2022-10-16T05:46:59;3.47;;;1.33;;
4634;SDS011;2330;48.158;11.816;2022-10-16T05:49:26;2.20;;;1.47;;
4634;SDS011;2330;48.158;11.816;2022-10-16T05:51:52;4.70;;;1.27;;
4634;SDS011;2330;48.158;11.816;2022-10-16T05:54:19;1.17;;;1.07;;
4634;SDS011;2330;48.158;11.816;2022-10-16T05:56:46;1.10;;;1.00;;
4634;SDS011;2330;48.158;11.816;2022-10-16T05:59:12;2.13;;;1.43;;
4634;SDS011;2330;48.158;11.816;2022-10-16T06:01:39;1.40;;;1.30;;
4634;SDS011;2330;48.158;11.816;2022-10-16T06:04:06;1.73;;;1.63;;
4634;SDS011;2330;48.158;11.816;2022-10-16T06:06:33;1.50;;;1.30;;
4634;SDS011;2330;48.158;11.816;2022-10-16T06:09:02;2.53;;;1.20;;
4634;SDS011;2330;48.158;11.816;2022-10-16T06:11:30;1.93;;;1.50;;
4634;SDS011;2330;48.158;11.816;2022-10-16T06:13:59;2.20;;;1.87;;
4634;SDS011;2330;48.158;11.816;2022-10-16T06:16:29;3.53;;;1.43;;
4634;SDS011;2330;48.158;11.816;2022-10-16T06:18:55;1.50;;;1.40;;
4634;SDS011;2330;48.158;11.816;2022-10-16T06:21:23;5.53;;;1.30;;
4634;SDS011;2330;48.158;11.816;2022-10-16T06:23:51;1.80;;;1.70;;
4634;SDS011;2330;48.158;11.816;2022-10-16T06:26:19;4.20;;;1.63;;
4634;SDS011;2330;48.158;11.816;2022-10-16T06:28:47;1.80;;;1.70;;
4634;SDS011;2330;48.158;11.816;2022-10-16T06:31:15;2.60;;;2.00;;
4634;SDS011;2330;48.158;11.816;2022-10-16T06:33:43;2.10;;;1.40;;
4634;SDS011;2330;48.158;11.816;2022-10-16T06:36:12;17.33;;;14.10;;
4634;SDS011;2330;48.158;11.816;2022-10-16T06:38:41;14.63;;;11.60;;
4634;SDS011;2330;48.158;11.816;2022-10-16T06:41:09;7.90;;;5.50;;
4634;SDS011;2330;48.158;11.816;2022-10-16T06:43:39;2.50;;;2.30;;
4634;SDS011;2330;48.158;11.816;2022-10-16T06:46:06;2.17;;;1.97;;
4634;SDS011;2330;48.158;11.816;2022-10-16T06:48:35;2.13;;;1.40;;
4634;SDS011;2330;48.158;11.816;2022-10-16T06:51:04;1.50;;;1.40;;
4634;SDS011;2330;48.158;11.816;2022-10-16T06:53:36;6.63;;;1.80;;
4634;SDS011;2330;48.158;11.816;2022-10-16T06:56:26;1.67;;;1.57;;
4634;SDS011;2330;48.158;11.816;2022-10-16T06:58:54;1.50;;;1.40;;
4634;SDS011;2330;48.158;11.816;2022-10-16T07:01:21;3.43;;;2.17;;
4634;SDS011;2330;48.158;11.816;2022-10-16T07:03:50;5.00;;;1.90;;
4634;SDS011;2330;48.158;11.816;2022-10-16T07:06:19;1.50;;;1.40;;
4634;SDS011;2330;48.158;11.816;2022-10-16T07:08:48;2.90;;;1.20;;
4634;SDS011;2330;48.158;11.816;2022-10-16T07:11:16;1.33;;;1.23;;
4634;SDS011;2330;48.158;11.816;2022-10-16T07:13:44;1.30;;;1.20;;
4634;SDS011;2330;48.158;11.816;2022-10-16T07:16:20;1.77;;;1.40;;
4634;SDS011;2330;48.158;11.816;2022-10-16T07:18:48;1.60;;;1.50;;
4634;SDS011;2330;48.158;11.816;2022-10-16T07:21:16;1.93;;;1.73;;
4634;SDS011;2330;48.158;11.816;2022-10-16T07:23:50;2.10;;;1.73;;
4634;SDS011;2330;48.158;11.816;2022-10-16T07:26:17;2.17;;;1.60;;
4634;SDS011;2330;48.158;11.816;2022-10-16T07:28:44;2.23;;;1.47;;
4634;SDS011;2330;48.158;11.816;2022-10-16T07:31:12;1.80;;;1.20;;
4634;SDS011;2330;48.158;11.816;2022-10-16T07:33:40;3.70;;;1.40;;
4634;SDS011;2330;48.158;11.816;2022-10-16T07:36:10;1.63;;;1.53;;
4634;SDS011;2330;48.158;11.816;2022-10-16T07:38:41;2.63;;;1.73;;
4634;SDS011;2330;48.158;11.816;2022-10-16T07:41:09;3.50;;;1.70;;
4634;SDS011;2330;48.158;11.816;2022-10-16T07:43:38;4.63;;;1.63;;
4634;SDS011;2330;48.158;11.816;2022-10-16T07:46:05;3.50;;;2.10;;
4634;SDS011;2330;48.158;11.816;2022-10-16T07:48:33;1.80;;;1.70;;
4634;SDS011;2330;48.158;11.816;2022-10-16T07:51:02;1.90;;;1.70;;
4634;SDS011;2330;48.158;11.816;2022-10-16T07:53:30;1.80;;;1.70;;
4634;SDS011;2330;48.158;11.816;2022-10-16T07:55:59;3.20;;;1.60;;
4634;SDS011;2330;48.158;11.816;2022-10-16T07:58:27;3.83;;;2.10;;
4634;SDS011;2330;48.158;11.816;2022-10-16T08:00:54;1.70;;;1.60;;
4634;SDS011;2330;48.158;11.816;2022-10-16T08:03:22;3.30;;;1.80;;
4634;SDS011;2330;48.158;11.816;2022-10-16T08:05:52;1.90;;;1.63;;
4634;SDS011;2330;48.158;11.816;2022-10-16T08:08:19;2.97;;;1.63;;
4634;SDS011;2330;48.158;11.816;2022-10-16T08:10:47;5.60;;;1.77;;
4634;SDS011;2330;48.158;11.816;2022-10-16T08:13:13;3.93;;;1.50;;
4634;SDS011;2330;48.158;11.816;2022-10-16T08:15:45;1.33;;;1.23;;
4634;SDS011;2330;48.158;11.816;2022-10-16T08:18:12;1.50;;;1.40;;
4634;SDS011;2330;48.158;11.816;2022-10-16T08:20:41;1.60;;;1.50;;
4634;SDS011;2330;48.158;11.816;2022-10-16T08:23:09;2.57;;;1.70;;
4634;SDS011;2330;48.158;11.816;2022-10-16T08:25:38;1.50;;;1.40;;
4634;SDS011;2330;48.158;11.816;2022-10-16T08:28:07;1.50;;;1.40;;
4634;SDS011;2330;48.158;11.816;2022-10-16T08:30:36;1.67;;;1.30;;
4634;SDS011;2330;48.158;11.816;2022-10-16T08:33:03;1.83;;;1.57;;
4634;SDS011;2330;48.158;11.816;2022-10-16T08:35:30;3.93;;;1.50;;
4634;SDS011;2330;48.158;11.816;2022-10-16T08:37:56;3.40;;;1.23;;
4634;SDS011;2330;48.158;11.816;2022-10-16T08:40:27;3.80;;;1.60;;
4634;SDS011;2330;48.158;11.816;2022-10-16T08:43:09;4.90;;;1.57;;
4634;SDS011;2330;48.158;11.816;2022-10-16T08:45:48;1.30;;;1.20;;
4634;SDS011;2330;48.158;11.816;2022-10-16T08:48:35;3.23;;;1.50;;
4634;SDS011;2330;48.158;11.816;2022-10-16T08:51:18;5.37;;;1.60;;
4634;SDS011;2330;48.158;11.816;2022-10-16T08:54:12;4.60;;;1.50;;
4634;SDS011;2330;48.158;11.816;2022-10-16T08:56:49;2.43;;;1.50;;
4634;SDS011;2330;48.158;11.816;2022-10-16T08:59:16;2.10;;;1.43;;
4634;SDS011;2330;48.158;11.816;2022-10-16T09:01:44;1.60;;;1.50;;
4634;SDS011;2330;48.158;11.816;2022-10-16T09:07:17;1.67;;;1.50;;
4634;SDS011;2330;48.158;11.816;2022-10-16T09:10:09;1.47;;;1.37;;
4634;SDS011;2330;48.158;11.816;2022-10-16T09:15:43;1.37;;;1.27;;
4634;SDS011;2330;48.158;11.816;2022-10-16T09:18:22;1.50;;;1.40;;
4634;SDS011;2330;48.158;11.816;2022-10-16T09:23:43;1.47;;;1.07;;
4634;SDS011;2330;48.158;11.816;2022-10-16T09:26:11;2.47;;;1.33;;
4634;SDS011;2330;48.158;11.816;2022-10-16T09:28:40;2.30;;;1.77;;
4634;SDS011;2330;48.158;11.816;2022-10-16T09:31:17;3.53;;;2.00;;
4634;SDS011;2330;48.158;11.816;2022-10-16T09:33:51;6.50;;;1.97;;
4634;SDS011;2330;48.158;11.816;2022-10-16T09:36:21;1.60;;;1.50;;
4634;SDS011;2330;48.158;11.816;2022-10-16T09:38:49;1.70;;;1.50;;
4634;SDS011;2330;48.158;11.816;2022-10-16T09:41:18;2.67;;;1.57;;
4634;SDS011;2330;48.158;11.816;2022-10-16T09:43:52;2.87;;;1.40;;
4634;SDS011;2330;48.158;11.816;2022-10-16T09:49:18;5.80;;;1.60;;
4634;SDS011;2330;48.158;11.816;2022-10-16T09:51:49;2.30;;;1.20;;
4634;SDS011;2330;48.158;11.816;2022-10-16T09:54:18;2.20;;;1.47;;
4634;SDS011;2330;48.158;11.816;2022-10-16T09:56:46;1.50;;;1.20;;
4634;SDS011;2330;48.158;11.816;2022-10-16T09:59:18;1.37;;;1.23;;
4634;SDS011;2330;48.158;11.816;2022-10-16T10:01:50;4.20;;;1.57;;
4634;SDS011;2330;48.158;11.816;2022-10-16T10:04:19;1.40;;;1.30;;
4634;SDS011;2330;48.158;11.816;2022-10-16T10:06:50;3.43;;;1.50;;
4634;SDS011;2330;48.158;11.816;2022-10-16T10:14:29;6.50;;;2.70;;
4634;SDS011;2330;48.158;11.816;2022-10-16T10:19:39;1.60;;;1.50;;
4634;SDS011;2330;48.158;11.816;2022-10-16T10:22:16;2.67;;;1.60;;
4634;SDS011;2330;48.158;11.816;2022-10-16T10:25:00;1.80;;;1.70;;
4634;SDS011;2330;48.158;11.816;2022-10-16T10:30:49;1.50;;;1.37;;
4634;SDS011;2330;48.158;11.816;2022-10-16T10:33:59;4.10;;;1.50;;
4634;SDS011;2330;48.158;11.816;2022-10-16T10:36:41;2.97;;;2.07;;
4634;SDS011;2330;48.158;11.816;2022-10-16T10:39:27;5.63;;;1.90;;
4634;SDS011;2330;48.158;11.816;2022-10-16T10:42:05;2.80;;;2.00;;
4634;SDS011;2330;48.158;11.816;2022-10-16T10:50:47;10.93;;;3.33;;
4634;SDS011;2330;48.158;11.816;2022-10-16T10:53:33;4.60;;;2.50;;
4634;SDS011;2330;48.158;11.816;2022-10-16T10:56:15;6.73;;;3.60;;
4634;SDS011;2330;48.158;11.816;2022-10-16T10:59:07;11.23;;;3.97;;
4634;SDS011;2330;48.158;11.816;2022-10-16T11:07:05;6.97;;;3.63;;
4634;SDS011;2330;48.158;11.816;2022-10-16T11:09:45;5.27;;;2.50;;
4634;SDS011;2330;48.158;11.816;2022-10-16T11:12:18;4.60;;;3.10;;
4634;SDS011;2330;48.158;11.816;2022-10-16T11:17:53;6.07;;;3.07;;
4634;SDS011;2330;48.158;11.816;2022-10-16T11:23:57;0.70;;;0.70;;
4634;SDS011;2330;48.158;11.816;2022-10-16T11:26:28;1.50;;;1.13;;
4634;SDS011;2330;48.158;11.816;2022-10-16T11:29:02;0.80;;;0.80;;
4634;SDS011;2330;48.158;11.816;2022-10-16T11:31:47;1.50;;;0.97;;
4634;SDS011;2330;48.158;11.816;2022-10-16T11:37:12;1.10;;;0.83;;
4634;SDS011;2330;48.158;11.816;2022-10-16T11:39:43;1.13;;;1.00;;
4634;SDS011;2330;48.158;11.816;2022-10-16T11:42:27;0.70;;;0.70;;
4634;SDS011;2330;48.158;11.816;2022-10-16T11:47:38;1.63;;;0.70;;
4634;SDS011;2330;48.158;11.816;2022-10-16T11:56:40;0.80;;;0.80;;
4634;SDS011;2330;48.158;11.816;2022-10-16T11:59:15;1.00;;;0.80;;
4634;SDS011;2330;48.158;11.816;2022-10-16T12:01:48;0.70;;;0.70;;
4634;SDS011;2330;48.158;11.816;2022-10-16T12:04:43;2.10;;;0.80;;
4634;SDS011;2330;48.158;11.816;2022-10-16T12:07:18;1.63;;;0.80;;
4634;SDS011;2330;48.158;11.816;2022-10-16T12:09:53;0.90;;;0.80;;
4634;SDS011;2330;48.158;11.816;2022-10-16T12:15:48;1.10;;;0.80;;
4634;SDS011;2330;48.158;11.816;2022-10-16T12:18:20;2.10;;;0.70;;
4634;SDS011;2330;48.158;11.816;2022-10-16T12:20:57;4.93;;;0.90;;
4634;SDS011;2330;48.158;11.816;2022-10-16T12:23:37;1.80;;;0.90;;
4634;SDS011;2330;48.158;11.816;2022-10-16T12:26:12;0.80;;;0.70;;
4634;SDS011;2330;48.158;11.816;2022-10-16T12:28:39;0.80;;;0.70;;
4634;SDS011;2330;48.158;11.816;2022-10-16T12:31:07;0.90;;;0.80;;
4634;SDS011;2330;48.158;11.816;2022-10-16T12:33:36;1.10;;;1.00;;
4634;SDS011;2330;48.158;11.816;2022-10-16T12:36:11;1.80;;;1.00;;
4634;SDS011;2330;48.158;11.816;2022-10-16T12:38:46;1.20;;;1.00;;
4634;SDS011;2330;48.158;11.816;2022-10-16T12:41:23;2.63;;;1.10;;
4634;SDS011;2330;48.158;11.816;2022-10-16T12:44:01;1.13;;;1.03;;
4634;SDS011;2330;48.158;11.816;2022-10-16T12:51:54;1.43;;;0.90;;
4634;SDS011;2330;48.158;11.816;2022-10-16T12:54:23;5.40;;;0.97;;
4634;SDS011;2330;48.158;11.816;2022-10-16T13:15:48;0.70;;;0.70;;
4634;SDS011;2330;48.158;11.816;2022-10-16T13:29:53;0.73;;;0.73;;
4634;SDS011;2330;48.158;11.816;2022-10-16T13:32:26;1.63;;;0.80;;
4634;SDS011;2330;48.158;11.816;2022-10-16T13:34:53;1.47;;;0.90;;
4634;SDS011;2330;48.158;11.816;2022-10-16T13:37:24;2.73;;;0.90;;
4634;SDS011;2330;48.158;11.816;2022-10-16T13:40:17;2.50;;;0.90;;
4634;SDS011;2330;48.158;11.816;2022-10-16T13:42:46;1.03;;;0.80;;
4634;SDS011;2330;48.158;11.816;2022-10-16T13:45:18;0.80;;;0.70;;
4634;SDS011;2330;48.158;11.816;2022-10-16T13:47:50;1.13;;;0.90;;
4634;SDS011;2330;48.158;11.816;2022-10-16T13:50:27;1.77;;;0.80;;
4634;SDS011;2330;48.158;11.816;2022-10-16T13:53:03;1.00;;;0.77;;
4634;SDS011;2330;48.158;11.816;2022-10-16T13:55:38;1.43;;;1.00;;
4634;SDS011;2330;48.158;11.816;2022-10-16T13:58:08;1.07;;;0.87;;
4634;SDS011;2330;48.158;11.816;2022-10-16T14:00:39;1.63;;;0.90;;
4634;SDS011;2330;48.158;11.816;2022-10-16T14:03:18;2.40;;;0.70;;
4634;SDS011;2330;48.158;11.816;2022-10-16T14:05:53;3.37;;;1.10;;
4634;SDS011;2330;48.158;11.816;2022-10-16T14:08:23;2.50;;;1.00;;
4634;SDS011;2330;48.158;11.816;2022-10-16T14:10:53;1.30;;;0.70;;
4634;SDS011;2330;48.158;11.816;2022-10-16T14:13:29;1.30;;;0.93;;
4634;SDS011;2330;48.158;11.816;2022-10-16T14:16:05;2.10;;;1.10;;
4634;SDS011;2330;48.158;11.816;2022-10-16T14:18:35;0.93;;;0.80;;
4634;SDS011;2330;48.158;11.816;2022-10-16T14:21:11;2.60;;;0.90;;
4634;SDS011;2330;48.158;11.816;2022-10-16T14:23:41;0.80;;;0.80;;
4634;SDS011;2330;48.158;11.816;2022-10-16T14:28:36;0.87;;;0.70;;
4634;SDS011;2330;48.158;11.816;2022-10-16T14:31:19;2.60;;;0.97;;
4634;SDS011;2330;48.158;11.816;2022-10-16T14:33:51;6.33;;;0.80;;
4634;SDS011;2330;48.158;11.816;2022-10-16T14:36:18;1.77;;;1.00;;
4634;SDS011;2330;48.158;11.816;2022-10-16T14:41:26;2.20;;;0.60;;
4634;SDS011;2330;48.158;11.816;2022-10-16T14:43:55;1.67;;;1.03;;
4634;SDS011;2330;48.158;11.816;2022-10-16T14:46:28;0.93;;;0.87;;
4634;SDS011;2330;48.158;11.816;2022-10-16T14:49:03;1.77;;;0.70;;
4634;SDS011;2330;48.158;11.816;2022-10-16T14:51:41;0.80;;;0.70;;
4634;SDS011;2330;48.158;11.816;2022-10-16T14:54:08;2.27;;;1.20;;
4634;SDS011;2330;48.158;11.816;2022-10-16T14:56:52;0.80;;;0.63;;
4634;SDS011;2330;48.158;11.816;2022-10-16T14:59:33;7.17;;;1.00;;
4634;SDS011;2330;48.158;11.816;2022-10-16T15:04:54;2.93;;;0.93;;
4634;SDS011;2330;48.158;11.816;2022-10-16T15:07:22;3.60;;;1.00;;
4634;SDS011;2330;48.158;11.816;2022-10-16T15:09:49;0.80;;;0.80;;
4634;SDS011;2330;48.158;11.816;2022-10-16T15:12:16;2.07;;;1.00;;
4634;SDS011;2330;48.158;11.816;2022-10-16T15:14:43;1.00;;;0.83;;
4634;SDS011;2330;48.158;11.816;2022-10-16T15:17:10;2.50;;;0.73;;
4634;SDS011;2330;48.158;11.816;2022-10-16T15:19:37;0.87;;;0.73;;
4634;SDS011;2330;48.158;11.816;2022-10-16T15:22:04;4.17;;;0.80;;
4634;SDS011;2330;48.158;11.816;2022-10-16T15:24:31;1.67;;;1.00;;
4634;SDS011;2330;48.158;11.816;2022-10-16T15:26:58;1.93;;;1.20;;
4634;SDS011;2330;48.158;11.816;2022-10-16T15:29:24;0.80;;;0.80;;
4634;SDS011;2330;48.158;11.816;2022-10-16T15:31:51;2.73;;;1.10;;
4634;SDS011;2330;48.158;11.816;2022-10-16T15:34:18;1.13;;;1.00;;
4634;SDS011;2330;48.158;11.816;2022-10-16T15:36:45;1.13;;;1.03;;
4634;SDS011;2330;48.158;11.816;2022-10-16T15:39:16;1.30;;;1.20;;
4634;SDS011;2330;48.158;11.816;2022-10-16T15:41:47;1.67;;;1.23;;
4634;SDS011;2330;48.158;11.816;2022-10-16T15:44:17;1.23;;;0.90;;
4634;SDS011;2330;48.158;11.816;2022-10-16T15:46:44;1.17;;;1.07;;
4634;SDS011;2330;48.158;11.816;2022-10-16T15:49:11;1.37;;;0.93;;
4634;SDS011;2330;48.158;11.816;2022-10-16T15:51:39;2.40;;;0.90;;
4634;SDS011;2330;48.158;11.816;2022-10-16T15:54:07;1.30;;;1.17;;
4634;SDS011;2330;48.158;11.816;2022-10-16T15:56:34;1.77;;;1.10;;
4634;SDS011;2330;48.158;11.816;2022-10-16T15:59:03;1.10;;;1.00;;
4634;SDS011;2330;48.158;11.816;2022-10-16T16:01:33;3.67;;;1.10;;
4634;SDS011;2330;48.158;11.816;2022-10-16T16:04:01;1.13;;;1.03;;
4634;SDS011;2330;48.158;11.816;2022-10-16T16:06:40;1.30;;;1.00;;
4634;SDS011;2330;48.158;11.816;2022-10-16T16:09:11;1.57;;;1.20;;
4634;SDS011;2330;48.158;11.816;2022-10-16T16:11:38;1.80;;;1.30;;
4634;SDS011;2330;48.158;11.816;2022-10-16T16:14:05;1.83;;;1.10;;
4634;SDS011;2330;48.158;11.816;2022-10-16T16:16:33;2.30;;;1.00;;
4634;SDS011;2330;48.158;11.816;2022-10-16T16:19:03;3.23;;;1.30;;
4634;SDS011;2330;48.158;11.816;2022-10-16T16:21:36;1.30;;;1.03;;
4634;SDS011;2330;48.158;11.816;2022-10-16T16:24:03;1.50;;;1.40;;
4634;SDS011;2330;48.158;11.816;2022-10-16T16:26:34;1.60;;;1.30;;
4634;SDS011;2330;48.158;11.816;2022-10-16T16:29:03;2.50;;;1.30;;
4634;SDS011;2330;48.158;11.816;2022-10-16T16:31:31;1.50;;;0.90;;
4634;SDS011;2330;48.158;11.816;2022-10-16T16:33:58;2.90;;;1.43;;
4634;SDS011;2330;48.158;11.816;2022-10-16T16:36:25;1.20;;;1.10;;
4634;SDS011;2330;48.158;11.816;2022-10-16T16:38:51;1.53;;;1.43;;
4634;SDS011;2330;48.158;11.816;2022-10-16T16:41:19;1.43;;;1.10;;
4634;SDS011;2330;48.158;11.816;2022-10-16T16:43:47;4.50;;;1.30;;
4634;SDS011;2330;48.158;11.816;2022-10-16T16:46:14;3.30;;;1.33;;
4634;SDS011;2330;48.158;11.816;2022-10-16T16:48:41;1.77;;;1.50;;
4634;SDS011;2330;48.158;11.816;2022-10-16T16:51:12;1.60;;;1.47;;
4634;SDS011;2330;48.158;11.816;2022-10-16T16:53:42;1.50;;;1.40;;
4634;SDS011;2330;48.158;11.816;2022-10-16T16:56:10;2.40;;;1.70;;
4634;SDS011;2330;48.158;11.816;2022-10-16T16:58:37;3.23;;;1.47;;
4634;SDS011;2330;48.158;11.816;2022-10-16T17:01:05;2.47;;;1.73;;
4634;SDS011;2330;48.158;11.816;2022-10-16T17:03:48;1.50;;;1.40;;
4634;SDS011;2330;48.158;11.816;2022-10-16T17:06:18;5.93;;;2.33;;
4634;SDS011;2330;48.158;11.816;2022-10-16T17:08:48;2.20;;;1.43;;
4634;SDS011;2330;48.158;11.816;2022-10-16T17:11:16;1.57;;;1.47;;
4634;SDS011;2330;48.158;11.816;2022-10-16T17:13:45;6.43;;;1.67;;
4634;SDS011;2330;48.158;11.816;2022-10-16T17:16:16;2.90;;;1.20;;
4634;SDS011;2330;48.158;11.816;2022-10-16T17:18:43;2.03;;;1.37;;
4634;SDS011;2330;48.158;11.816;2022-10-16T17:21:09;1.40;;;1.30;;
4634;SDS011;2330;48.158;11.816;2022-10-16T17:23:36;2.07;;;1.80;;
4634;SDS011;2330;48.158;11.816;2022-10-16T17:26:08;2.23;;;2.03;;
4634;SDS011;2330;48.158;11.816;2022-10-16T17:28:37;3.07;;;2.80;;